sensor_id;sensor_type;location;lat;lon;timestamp;P1;durP1;ratioP1;P2;durP2;ratioP2
26612;SDS011;14248;57.652;11.908;2023-04-24T00:01:15;13.13;;;10.73;;
26612;SDS011;14248;57.652;11.908;2023-04-24T00:03:56;12.93;;;10.32;;
26612;SDS011;14248;57.652;11.908;2023-04-24T00:09:18;13.55;;;10.20;;
26612;SDS011;14248;57.652;11.908;2023-04-24T00:14:48;13.77;;;10.40;;
26612;SDS011;14248;57.652;11.908;2023-04-24T00:17:20;14.57;;;11.02;;
26612;SDS011;14248;57.652;11.908;2023-04-24T00:22:55;15.48;;;11.70;;
26612;SDS011;14248;57.652;11.908;2023-04-24T00:28:00;16.02;;;11.25;;
26612;SDS011;14248;57.652;11.908;2023-04-24T00:30:39;12.80;;;9.80;;
26612;SDS011;14248;57.652;11.908;2023-04-24T00:33:17;19.23;;;13.48;;
26612;SDS011;14248;57.652;11.908;2023-04-24T00:38:15;15.32;;;11.98;;
26612;SDS011;14248;57.652;11.908;2023-04-24T00:40:41;15.25;;;11.45;;
26612;SDS011;14248;57.652;11.908;2023-04-24T00:43:07;14.57;;;10.30;;
26612;SDS011;14248;57.652;11.908;2023-04-24T00:45:43;16.73;;;11.52;;
26612;SDS011;14248;57.652;11.908;2023-04-24T00:51:03;15.38;;;11.77;;
26612;SDS011;14248;57.652;11.908;2023-04-24T00:53:30;16.02;;;11.98;;
26612;SDS011;14248;57.652;11.908;2023-04-24T00:56:08;17.10;;;12.55;;
26612;SDS011;14248;57.652;11.908;2023-04-24T00:58:35;15.45;;;11.32;;
26612;SDS011;14248;57.652;11.908;2023-04-24T01:01:02;15.15;;;10.82;;
26612;SDS011;14248;57.652;11.908;2023-04-24T01:03:31;12.65;;;9.38;;
26612;SDS011;14248;57.652;11.908;2023-04-24T01:05:58;15.75;;;10.38;;
26612;SDS011;14248;57.652;11.908;2023-04-24T01:08:24;14.98;;;11.50;;
26612;SDS011;14248;57.652;11.908;2023-04-24T01:10:52;17.58;;;11.23;;
26612;SDS011;14248;57.652;11.908;2023-04-24T01:13:21;12.48;;;10.13;;
26612;SDS011;14248;57.652;11.908;2023-04-24T01:15:47;14.77;;;10.32;;
26612;SDS011;14248;57.652;11.908;2023-04-24T01:18:14;12.98;;;10.20;;
26612;SDS011;14248;57.652;11.908;2023-04-24T01:20:41;14.95;;;10.70;;
26612;SDS011;14248;57.652;11.908;2023-04-24T01:23:08;16.40;;;12.02;;
26612;SDS011;14248;57.652;11.908;2023-04-24T01:25:35;16.67;;;11.48;;
26612;SDS011;14248;57.652;11.908;2023-04-24T01:28:01;15.52;;;10.73;;
26612;SDS011;14248;57.652;11.908;2023-04-24T01:32:57;14.63;;;10.35;;
26612;SDS011;14248;57.652;11.908;2023-04-24T01:35:24;15.23;;;11.48;;
26612;SDS011;14248;57.652;11.908;2023-04-24T01:37:50;14.90;;;11.85;;
26612;SDS011;14248;57.652;11.908;2023-04-24T01:40:17;15.40;;;11.18;;
26612;SDS011;14248;57.652;11.908;2023-04-24T01:42:43;16.25;;;10.98;;
26612;SDS011;14248;57.652;11.908;2023-04-24T01:45:10;15.43;;;10.98;;
26612;SDS011;14248;57.652;11.908;2023-04-24T01:47:38;14.25;;;10.40;;
26612;SDS011;14248;57.652;11.908;2023-04-24T01:50:04;13.25;;;10.18;;
26612;SDS011;14248;57.652;11.908;2023-04-24T01:52:30;14.27;;;9.80;;
26612;SDS011;14248;57.652;11.908;2023-04-24T01:55:02;11.48;;;9.27;;
26612;SDS011;14248;57.652;11.908;2023-04-24T01:57:31;12.05;;;9.68;;
26612;SDS011;14248;57.652;11.908;2023-04-24T01:59:57;14.48;;;10.57;;
26612;SDS011;14248;57.652;11.908;2023-04-24T02:02:25;12.95;;;10.07;;
26612;SDS011;14248;57.652;11.908;2023-04-24T02:04:56;14.43;;;10.25;;
26612;SDS011;14248;57.652;11.908;2023-04-24T02:07:22;13.55;;;10.35;;
26612;SDS011;14248;57.652;11.908;2023-04-24T02:09:48;13.85;;;10.30;;
26612;SDS011;14248;57.652;11.908;2023-04-24T02:12:14;10.45;;;8.73;;
26612;SDS011;14248;57.652;11.908;2023-04-24T02:14:42;14.23;;;9.43;;
26612;SDS011;14248;57.652;11.908;2023-04-24T02:17:08;11.45;;;8.80;;
26612;SDS011;14248;57.652;11.908;2023-04-24T02:19:34;10.93;;;8.40;;
26612;SDS011;14248;57.652;11.908;2023-04-24T02:22:00;10.57;;;7.88;;
26612;SDS011;14248;57.652;11.908;2023-04-24T02:24:27;11.63;;;8.00;;
26612;SDS011;14248;57.652;11.908;2023-04-24T02:26:53;13.93;;;10.32;;
26612;SDS011;14248;57.652;11.908;2023-04-24T02:29:19;13.15;;;9.88;;
26612;SDS011;14248;57.652;11.908;2023-04-24T02:31:45;14.60;;;10.73;;
26612;SDS011;14248;57.652;11.908;2023-04-24T02:34:11;16.52;;;11.40;;
26612;SDS011;14248;57.652;11.908;2023-04-24T02:36:37;15.13;;;11.55;;
26612;SDS011;14248;57.652;11.908;2023-04-24T02:39:04;15.45;;;11.70;;
26612;SDS011;14248;57.652;11.908;2023-04-24T02:41:31;16.45;;;12.07;;
26612;SDS011;14248;57.652;11.908;2023-04-24T02:43:58;15.95;;;11.23;;
26612;SDS011;14248;57.652;11.908;2023-04-24T02:46:24;12.90;;;10.02;;
26612;SDS011;14248;57.652;11.908;2023-04-24T02:48:51;11.98;;;8.93;;
26612;SDS011;14248;57.652;11.908;2023-04-24T02:51:19;14.05;;;10.02;;
26612;SDS011;14248;57.652;11.908;2023-04-24T02:53:46;14.52;;;10.18;;
26612;SDS011;14248;57.652;11.908;2023-04-24T02:56:12;13.73;;;10.45;;
26612;SDS011;14248;57.652;11.908;2023-04-24T02:58:38;14.00;;;10.30;;
26612;SDS011;14248;57.652;11.908;2023-04-24T03:01:04;14.27;;;11.10;;
26612;SDS011;14248;57.652;11.908;2023-04-24T03:03:30;15.93;;;10.95;;
26612;SDS011;14248;57.652;11.908;2023-04-24T03:05:57;16.10;;;11.77;;
26612;SDS011;14248;57.652;11.908;2023-04-24T03:08:24;14.98;;;10.75;;
26612;SDS011;14248;57.652;11.908;2023-04-24T03:10:52;14.80;;;11.13;;
26612;SDS011;14248;57.652;11.908;2023-04-24T03:13:18;14.48;;;10.68;;
26612;SDS011;14248;57.652;11.908;2023-04-24T03:15:45;14.35;;;10.60;;
26612;SDS011;14248;57.652;11.908;2023-04-24T03:18:11;12.93;;;9.40;;
26612;SDS011;14248;57.652;11.908;2023-04-24T03:20:38;13.60;;;9.63;;
26612;SDS011;14248;57.652;11.908;2023-04-24T03:23:04;13.48;;;9.88;;
26612;SDS011;14248;57.652;11.908;2023-04-24T03:25:31;16.38;;;10.10;;
26612;SDS011;14248;57.652;11.908;2023-04-24T03:27:57;13.57;;;9.75;;
26612;SDS011;14248;57.652;11.908;2023-04-24T03:30:24;12.90;;;9.30;;
26612;SDS011;14248;57.652;11.908;2023-04-24T03:32:50;12.93;;;9.60;;
26612;SDS011;14248;57.652;11.908;2023-04-24T03:35:16;14.00;;;9.93;;
26612;SDS011;14248;57.652;11.908;2023-04-24T03:37:42;14.63;;;9.18;;
26612;SDS011;14248;57.652;11.908;2023-04-24T03:40:08;13.88;;;10.07;;
26612;SDS011;14248;57.652;11.908;2023-04-24T03:42:35;12.65;;;9.35;;
26612;SDS011;14248;57.652;11.908;2023-04-24T03:45:01;11.73;;;8.73;;
26612;SDS011;14248;57.652;11.908;2023-04-24T03:47:27;10.25;;;7.97;;
26612;SDS011;14248;57.652;11.908;2023-04-24T03:49:53;12.77;;;8.80;;
26612;SDS011;14248;57.652;11.908;2023-04-24T03:52:20;12.93;;;10.25;;
26612;SDS011;14248;57.652;11.908;2023-04-24T03:54:46;12.85;;;9.60;;
26612;SDS011;14248;57.652;11.908;2023-04-24T03:57:13;10.88;;;8.70;;
26612;SDS011;14248;57.652;11.908;2023-04-24T03:59:39;11.85;;;9.07;;
26612;SDS011;14248;57.652;11.908;2023-04-24T04:02:06;13.18;;;10.32;;
26612;SDS011;14248;57.652;11.908;2023-04-24T04:04:32;13.68;;;10.13;;
26612;SDS011;14248;57.652;11.908;2023-04-24T04:06:58;14.98;;;9.75;;
26612;SDS011;14248;57.652;11.908;2023-04-24T04:09:29;10.60;;;8.32;;
26612;SDS011;14248;57.652;11.908;2023-04-24T04:11:56;12.25;;;8.70;;
26612;SDS011;14248;57.652;11.908;2023-04-24T04:14:22;10.45;;;7.53;;
26612;SDS011;14248;57.652;11.908;2023-04-24T04:16:48;9.70;;;7.47;;
26612;SDS011;14248;57.652;11.908;2023-04-24T04:19:14;11.00;;;7.70;;
26612;SDS011;14248;57.652;11.908;2023-04-24T04:21:40;12.90;;;8.43;;
26612;SDS011;14248;57.652;11.908;2023-04-24T04:24:06;9.57;;;8.00;;
26612;SDS011;14248;57.652;11.908;2023-04-24T04:26:36;9.70;;;7.78;;
26612;SDS011;14248;57.652;11.908;2023-04-24T04:29:04;11.20;;;7.88;;
26612;SDS011;14248;57.652;11.908;2023-04-24T04:31:31;9.82;;;7.90;;
26612;SDS011;14248;57.652;11.908;2023-04-24T04:33:57;10.73;;;7.65;;
26612;SDS011;14248;57.652;11.908;2023-04-24T04:36:23;10.23;;;7.72;;
26612;SDS011;14248;57.652;11.908;2023-04-24T04:38:51;13.90;;;9.43;;
26612;SDS011;14248;57.652;11.908;2023-04-24T04:41:20;13.13;;;9.23;;
26612;SDS011;14248;57.652;11.908;2023-04-24T04:43:46;11.60;;;8.98;;
26612;SDS011;14248;57.652;11.908;2023-04-24T04:46:15;11.52;;;9.27;;
26612;SDS011;14248;57.652;11.908;2023-04-24T04:48:41;12.35;;;9.43;;
26612;SDS011;14248;57.652;11.908;2023-04-24T04:51:08;13.07;;;9.68;;
26612;SDS011;14248;57.652;11.908;2023-04-24T04:53:34;14.13;;;10.07;;
26612;SDS011;14248;57.652;11.908;2023-04-24T04:56:00;13.77;;;9.75;;
26612;SDS011;14248;57.652;11.908;2023-04-24T04:58:26;13.82;;;9.20;;
26612;SDS011;14248;57.652;11.908;2023-04-24T05:00:53;13.48;;;10.25;;
26612;SDS011;14248;57.652;11.908;2023-04-24T05:03:19;13.93;;;10.00;;
26612;SDS011;14248;57.652;11.908;2023-04-24T05:05:45;12.27;;;9.15;;
26612;SDS011;14248;57.652;11.908;2023-04-24T05:08:16;11.90;;;9.10;;
26612;SDS011;14248;57.652;11.908;2023-04-24T05:10:43;12.15;;;8.50;;
26612;SDS011;14248;57.652;11.908;2023-04-24T05:16:03;11.93;;;8.50;;
26612;SDS011;14248;57.652;11.908;2023-04-24T05:18:29;11.02;;;8.13;;
26612;SDS011;14248;57.652;11.908;2023-04-24T05:20:55;11.65;;;9.40;;
26612;SDS011;14248;57.652;11.908;2023-04-24T05:23:21;13.30;;;9.82;;
26612;SDS011;14248;57.652;11.908;2023-04-24T05:25:47;13.52;;;9.27;;
26612;SDS011;14248;57.652;11.908;2023-04-24T05:28:13;11.48;;;9.27;;
26612;SDS011;14248;57.652;11.908;2023-04-24T05:30:41;10.35;;;8.00;;
26612;SDS011;14248;57.652;11.908;2023-04-24T05:33:09;10.57;;;8.00;;
26612;SDS011;14248;57.652;11.908;2023-04-24T05:35:35;11.13;;;8.65;;
26612;SDS011;14248;57.652;11.908;2023-04-24T05:38:01;11.15;;;8.07;;
26612;SDS011;14248;57.652;11.908;2023-04-24T05:40:31;9.00;;;6.88;;
26612;SDS011;14248;57.652;11.908;2023-04-24T05:42:58;10.13;;;7.53;;
26612;SDS011;14248;57.652;11.908;2023-04-24T05:45:24;9.57;;;7.15;;
26612;SDS011;14248;57.652;11.908;2023-04-24T05:47:50;10.02;;;7.95;;
26612;SDS011;14248;57.652;11.908;2023-04-24T05:50:17;8.25;;;7.40;;
26612;SDS011;14248;57.652;11.908;2023-04-24T05:52:43;9.48;;;7.30;;
26612;SDS011;14248;57.652;11.908;2023-04-24T05:55:09;10.43;;;7.53;;
26612;SDS011;14248;57.652;11.908;2023-04-24T05:57:35;13.00;;;8.07;;
26612;SDS011;14248;57.652;11.908;2023-04-24T06:01:36;11.05;;;7.90;;
26612;SDS011;14248;57.652;11.908;2023-04-24T06:04:03;9.00;;;7.22;;
26612;SDS011;14248;57.652;11.908;2023-04-24T06:06:29;10.88;;;8.77;;
26612;SDS011;14248;57.652;11.908;2023-04-24T06:08:55;10.70;;;7.85;;
26612;SDS011;14248;57.652;11.908;2023-04-24T06:11:21;10.95;;;7.80;;
26612;SDS011;14248;57.652;11.908;2023-04-24T06:13:47;8.02;;;6.80;;
26612;SDS011;14248;57.652;11.908;2023-04-24T06:16:13;10.27;;;7.90;;
26612;SDS011;14248;57.652;11.908;2023-04-24T06:18:50;8.85;;;7.43;;
26612;SDS011;14248;57.652;11.908;2023-04-24T06:21:24;8.18;;;6.93;;
26612;SDS011;14248;57.652;11.908;2023-04-24T06:23:50;9.52;;;7.63;;
26612;SDS011;14248;57.652;11.908;2023-04-24T06:26:17;10.25;;;8.23;;
26612;SDS011;14248;57.652;11.908;2023-04-24T06:28:44;8.38;;;6.45;;
26612;SDS011;14248;57.652;11.908;2023-04-24T06:31:10;9.95;;;6.78;;
26612;SDS011;14248;57.652;11.908;2023-04-24T06:33:36;10.02;;;7.38;;
26612;SDS011;14248;57.652;11.908;2023-04-24T06:36:02;10.95;;;7.95;;
26612;SDS011;14248;57.652;11.908;2023-04-24T06:38:29;7.93;;;6.25;;
26612;SDS011;14248;57.652;11.908;2023-04-24T06:40:55;9.25;;;6.28;;
26612;SDS011;14248;57.652;11.908;2023-04-24T06:43:21;10.98;;;7.72;;
26612;SDS011;14248;57.652;11.908;2023-04-24T06:45:47;11.32;;;7.50;;
26612;SDS011;14248;57.652;11.908;2023-04-24T06:48:13;7.18;;;6.28;;
26612;SDS011;14248;57.652;11.908;2023-04-24T06:50:40;7.85;;;6.15;;
26612;SDS011;14248;57.652;11.908;2023-04-24T06:53:06;6.38;;;5.50;;
26612;SDS011;14248;57.652;11.908;2023-04-24T06:55:32;7.30;;;5.70;;
26612;SDS011;14248;57.652;11.908;2023-04-24T06:57:57;8.10;;;7.15;;
26612;SDS011;14248;57.652;11.908;2023-04-24T07:00:24;9.13;;;6.97;;
26612;SDS011;14248;57.652;11.908;2023-04-24T07:02:49;9.27;;;7.18;;
26612;SDS011;14248;57.652;11.908;2023-04-24T07:05:16;8.88;;;6.78;;
26612;SDS011;14248;57.652;11.908;2023-04-24T07:07:45;7.97;;;6.85;;
26612;SDS011;14248;57.652;11.908;2023-04-24T07:10:12;9.25;;;6.03;;
26612;SDS011;14248;57.652;11.908;2023-04-24T07:12:38;6.25;;;5.60;;
26612;SDS011;14248;57.652;11.908;2023-04-24T07:15:04;7.10;;;5.75;;
26612;SDS011;14248;57.652;11.908;2023-04-24T07:17:30;7.50;;;6.07;;
26612;SDS011;14248;57.652;11.908;2023-04-24T07:19:56;8.00;;;6.70;;
26612;SDS011;14248;57.652;11.908;2023-04-24T07:22:22;12.65;;;7.35;;
26612;SDS011;14248;57.652;11.908;2023-04-24T07:24:48;10.73;;;7.55;;
26612;SDS011;14248;57.652;11.908;2023-04-24T07:27:14;8.60;;;6.70;;
26612;SDS011;14248;57.652;11.908;2023-04-24T07:29:40;7.03;;;6.05;;
26612;SDS011;14248;57.652;11.908;2023-04-24T07:32:06;11.20;;;8.15;;
26612;SDS011;14248;57.652;11.908;2023-04-24T07:34:33;8.75;;;7.47;;
26612;SDS011;14248;57.652;11.908;2023-04-24T07:36:59;9.55;;;7.38;;
26612;SDS011;14248;57.652;11.908;2023-04-24T07:39:25;10.68;;;7.93;;
26612;SDS011;14248;57.652;11.908;2023-04-24T07:41:51;8.15;;;6.82;;
26612;SDS011;14248;57.652;11.908;2023-04-24T07:44:17;9.70;;;7.03;;
26612;SDS011;14248;57.652;11.908;2023-04-24T07:46:43;8.73;;;6.25;;
26612;SDS011;14248;57.652;11.908;2023-04-24T07:49:09;9.98;;;7.65;;
26612;SDS011;14248;57.652;11.908;2023-04-24T07:51:35;8.82;;;7.00;;
26612;SDS011;14248;57.652;11.908;2023-04-24T07:54:03;10.20;;;7.32;;
26612;SDS011;14248;57.652;11.908;2023-04-24T07:56:31;9.27;;;6.68;;
26612;SDS011;14248;57.652;11.908;2023-04-24T07:58:58;6.65;;;5.53;;
26612;SDS011;14248;57.652;11.908;2023-04-24T08:01:24;9.32;;;6.95;;
26612;SDS011;14248;57.652;11.908;2023-04-24T08:06:19;8.00;;;7.03;;
26612;SDS011;14248;57.652;11.908;2023-04-24T08:08:45;7.60;;;6.60;;
26612;SDS011;14248;57.652;11.908;2023-04-24T08:11:11;9.82;;;7.40;;
26612;SDS011;14248;57.652;11.908;2023-04-24T08:13:37;10.48;;;6.82;;
26612;SDS011;14248;57.652;11.908;2023-04-24T08:16:03;10.00;;;7.18;;
26612;SDS011;14248;57.652;11.908;2023-04-24T08:18:30;10.77;;;8.07;;
26612;SDS011;14248;57.652;11.908;2023-04-24T08:20:56;11.20;;;7.82;;
26612;SDS011;14248;57.652;11.908;2023-04-24T08:23:26;9.73;;;7.50;;
26612;SDS011;14248;57.652;11.908;2023-04-24T08:25:52;9.85;;;7.28;;
26612;SDS011;14248;57.652;11.908;2023-04-24T08:28:18;12.23;;;8.52;;
26612;SDS011;14248;57.652;11.908;2023-04-24T08:30:45;12.57;;;8.57;;
26612;SDS011;14248;57.652;11.908;2023-04-24T08:33:12;11.27;;;7.57;;
26612;SDS011;14248;57.652;11.908;2023-04-24T08:35:38;12.50;;;8.23;;
26612;SDS011;14248;57.652;11.908;2023-04-24T08:38:04;11.98;;;9.10;;
26612;SDS011;14248;57.652;11.908;2023-04-24T08:40:30;11.25;;;7.97;;
26612;SDS011;14248;57.652;11.908;2023-04-24T08:42:59;11.85;;;7.57;;
26612;SDS011;14248;57.652;11.908;2023-04-24T08:45:25;10.50;;;7.60;;
26612;SDS011;14248;57.652;11.908;2023-04-24T08:47:52;11.45;;;8.02;;
26612;SDS011;14248;57.652;11.908;2023-04-24T08:50:22;12.98;;;8.02;;
26612;SDS011;14248;57.652;11.908;2023-04-24T08:52:51;11.13;;;8.10;;
26612;SDS011;14248;57.652;11.908;2023-04-24T08:55:22;11.82;;;8.07;;
26612;SDS011;14248;57.652;11.908;2023-04-24T08:57:50;10.63;;;7.93;;
26612;SDS011;14248;57.652;11.908;2023-04-24T09:00:18;10.15;;;7.43;;
26612;SDS011;14248;57.652;11.908;2023-04-24T09:02:44;8.73;;;6.28;;
26612;SDS011;14248;57.652;11.908;2023-04-24T09:05:11;7.90;;;5.95;;
26612;SDS011;14248;57.652;11.908;2023-04-24T09:07:39;9.02;;;6.90;;
26612;SDS011;14248;57.652;11.908;2023-04-24T09:10:05;7.13;;;5.50;;
26612;SDS011;14248;57.652;11.908;2023-04-24T09:12:32;8.10;;;5.57;;
26612;SDS011;14248;57.652;11.908;2023-04-24T09:15:00;8.85;;;5.72;;
26612;SDS011;14248;57.652;11.908;2023-04-24T09:17:26;6.25;;;5.05;;
26612;SDS011;14248;57.652;11.908;2023-04-24T09:19:53;7.32;;;5.05;;
26612;SDS011;14248;57.652;11.908;2023-04-24T09:22:19;5.57;;;4.70;;
26612;SDS011;14248;57.652;11.908;2023-04-24T09:24:45;5.47;;;4.20;;
26612;SDS011;14248;57.652;11.908;2023-04-24T09:27:12;4.80;;;3.83;;
26612;SDS011;14248;57.652;11.908;2023-04-24T09:29:39;6.75;;;4.55;;
26612;SDS011;14248;57.652;11.908;2023-04-24T09:32:20;5.05;;;4.18;;
26612;SDS011;14248;57.652;11.908;2023-04-24T09:34:47;5.45;;;3.92;;
26612;SDS011;14248;57.652;11.908;2023-04-24T09:37:29;5.45;;;4.45;;
26612;SDS011;14248;57.652;11.908;2023-04-24T09:42:43;7.28;;;4.80;;
26612;SDS011;14248;57.652;11.908;2023-04-24T09:45:10;6.28;;;4.32;;
26612;SDS011;14248;57.652;11.908;2023-04-24T09:47:37;6.75;;;4.50;;
26612;SDS011;14248;57.652;11.908;2023-04-24T09:50:09;6.28;;;4.95;;
26612;SDS011;14248;57.652;11.908;2023-04-24T09:52:37;6.75;;;5.05;;
26612;SDS011;14248;57.652;11.908;2023-04-24T09:55:10;8.10;;;5.45;;
26612;SDS011;14248;57.652;11.908;2023-04-24T09:57:47;6.40;;;5.00;;
26612;SDS011;14248;57.652;11.908;2023-04-24T10:00:24;6.95;;;5.25;;
26612;SDS011;14248;57.652;11.908;2023-04-24T10:03:01;8.27;;;4.95;;
26612;SDS011;14248;57.652;11.908;2023-04-24T10:08:00;7.40;;;5.47;;
26612;SDS011;14248;57.652;11.908;2023-04-24T10:10:28;6.25;;;5.28;;
26612;SDS011;14248;57.652;11.908;2023-04-24T10:12:55;8.05;;;5.40;;
26612;SDS011;14248;57.652;11.908;2023-04-24T10:15:21;7.32;;;5.13;;
26612;SDS011;14248;57.652;11.908;2023-04-24T10:17:48;7.97;;;4.50;;
26612;SDS011;14248;57.652;11.908;2023-04-24T10:20:24;5.85;;;4.78;;
26612;SDS011;14248;57.652;11.908;2023-04-24T10:22:51;7.50;;;5.47;;
26612;SDS011;14248;57.652;11.908;2023-04-24T10:25:21;8.38;;;5.40;;
26612;SDS011;14248;57.652;11.908;2023-04-24T10:27:49;7.35;;;5.18;;
26612;SDS011;14248;57.652;11.908;2023-04-24T10:30:16;7.03;;;4.55;;
26612;SDS011;14248;57.652;11.908;2023-04-24T10:32:42;7.55;;;5.43;;
26612;SDS011;14248;57.652;11.908;2023-04-24T10:35:12;7.03;;;4.75;;
26612;SDS011;14248;57.652;11.908;2023-04-24T10:37:43;8.23;;;4.90;;
26612;SDS011;14248;57.652;11.908;2023-04-24T10:40:10;6.38;;;4.47;;
26612;SDS011;14248;57.652;11.908;2023-04-24T10:42:39;5.57;;;4.90;;
26612;SDS011;14248;57.652;11.908;2023-04-24T10:45:18;5.22;;;4.72;;
26612;SDS011;14248;57.652;11.908;2023-04-24T10:48:06;6.82;;;5.10;;
26612;SDS011;14248;57.652;11.908;2023-04-24T10:53:16;5.80;;;4.72;;
26612;SDS011;14248;57.652;11.908;2023-04-24T10:55:45;5.32;;;4.53;;
26612;SDS011;14248;57.652;11.908;2023-04-24T10:58:23;6.80;;;4.45;;
26612;SDS011;14248;57.652;11.908;2023-04-24T11:01:00;6.22;;;4.07;;
26612;SDS011;14248;57.652;11.908;2023-04-24T11:05:55;5.40;;;4.47;;
26612;SDS011;14248;57.652;11.908;2023-04-24T11:08:29;4.93;;;4.07;;
26612;SDS011;14248;57.652;11.908;2023-04-24T11:11:07;4.68;;;4.28;;
26612;SDS011;14248;57.652;11.908;2023-04-24T11:16:26;4.78;;;4.28;;
26612;SDS011;14248;57.652;11.908;2023-04-24T11:19:08;5.10;;;4.50;;
26612;SDS011;14248;57.652;11.908;2023-04-24T11:21:40;4.57;;;4.18;;
26612;SDS011;14248;57.652;11.908;2023-04-24T11:26:56;4.82;;;3.90;;
26612;SDS011;14248;57.652;11.908;2023-04-24T11:29:42;6.22;;;4.47;;
26612;SDS011;14248;57.652;11.908;2023-04-24T11:32:15;4.28;;;3.88;;
26612;SDS011;14248;57.652;11.908;2023-04-24T11:34:53;4.43;;;3.90;;
26612;SDS011;14248;57.652;11.908;2023-04-24T11:37:21;5.00;;;4.28;;
26612;SDS011;14248;57.652;11.908;2023-04-24T11:39:53;4.82;;;3.38;;
26612;SDS011;14248;57.652;11.908;2023-04-24T11:42:29;5.05;;;4.35;;
26612;SDS011;14248;57.652;11.908;2023-04-24T11:45:06;5.47;;;3.75;;
26612;SDS011;14248;57.652;11.908;2023-04-24T11:47:36;4.88;;;3.78;;
26612;SDS011;14248;57.652;11.908;2023-04-24T11:50:03;6.88;;;3.60;;
26612;SDS011;14248;57.652;11.908;2023-04-24T11:52:31;5.28;;;3.42;;
26612;SDS011;14248;57.652;11.908;2023-04-24T11:54:58;3.40;;;3.10;;
26612;SDS011;14248;57.652;11.908;2023-04-24T11:57:25;4.13;;;3.70;;
26612;SDS011;14248;57.652;11.908;2023-04-24T11:59:53;3.63;;;3.30;;
26612;SDS011;14248;57.652;11.908;2023-04-24T12:02:20;3.13;;;2.83;;
26612;SDS011;14248;57.652;11.908;2023-04-24T12:04:49;4.47;;;3.70;;
26612;SDS011;14248;57.652;11.908;2023-04-24T12:07:18;4.22;;;3.20;;
26612;SDS011;14248;57.652;11.908;2023-04-24T12:09:45;3.88;;;3.00;;
26612;SDS011;14248;57.652;11.908;2023-04-24T12:12:30;4.68;;;3.50;;
26612;SDS011;14248;57.652;11.908;2023-04-24T12:14:56;4.07;;;3.67;;
26612;SDS011;14248;57.652;11.908;2023-04-24T12:17:27;3.88;;;3.03;;
26612;SDS011;14248;57.652;11.908;2023-04-24T12:20:04;4.72;;;3.30;;
26612;SDS011;14248;57.652;11.908;2023-04-24T12:25:10;3.45;;;2.80;;
26612;SDS011;14248;57.652;11.908;2023-04-24T12:27:36;3.40;;;2.50;;
26612;SDS011;14248;57.652;11.908;2023-04-24T12:30:03;3.47;;;3.00;;
26612;SDS011;14248;57.652;11.908;2023-04-24T12:32:32;3.55;;;2.88;;
26612;SDS011;14248;57.652;11.908;2023-04-24T12:34:58;2.65;;;2.45;;
26612;SDS011;14248;57.652;11.908;2023-04-24T12:37:25;3.25;;;2.95;;
26612;SDS011;14248;57.652;11.908;2023-04-24T12:39:58;2.75;;;2.55;;
26612;SDS011;14248;57.652;11.908;2023-04-24T12:42:26;2.63;;;2.42;;
26612;SDS011;14248;57.652;11.908;2023-04-24T12:44:55;3.10;;;2.80;;
26612;SDS011;14248;57.652;11.908;2023-04-24T12:47:21;2.85;;;2.65;;
26612;SDS011;14248;57.652;11.908;2023-04-24T12:49:47;3.38;;;2.92;;
26612;SDS011;14248;57.652;11.908;2023-04-24T12:52:15;2.55;;;2.35;;
26612;SDS011;14248;57.652;11.908;2023-04-24T12:54:42;3.05;;;2.67;;
26612;SDS011;14248;57.652;11.908;2023-04-24T12:57:09;2.50;;;2.20;;
26612;SDS011;14248;57.652;11.908;2023-04-24T12:59:34;2.85;;;2.65;;
26612;SDS011;14248;57.652;11.908;2023-04-24T13:02:00;2.70;;;2.30;;
26612;SDS011;14248;57.652;11.908;2023-04-24T13:04:26;2.88;;;2.10;;
26612;SDS011;14248;57.652;11.908;2023-04-24T13:06:51;2.30;;;2.10;;
26612;SDS011;14248;57.652;11.908;2023-04-24T13:09:17;2.55;;;2.35;;
26612;SDS011;14248;57.652;11.908;2023-04-24T13:11:42;2.92;;;2.15;;
26612;SDS011;14248;57.652;11.908;2023-04-24T13:14:08;2.20;;;2.00;;
26612;SDS011;14248;57.652;11.908;2023-04-24T13:16:35;2.20;;;2.00;;
26612;SDS011;14248;57.652;11.908;2023-04-24T13:19:01;2.25;;;2.10;;
26612;SDS011;14248;57.652;11.908;2023-04-24T13:21:28;2.50;;;2.30;;
26612;SDS011;14248;57.652;11.908;2023-04-24T13:23:55;3.67;;;2.08;;
26612;SDS011;14248;57.652;11.908;2023-04-24T13:26:21;2.50;;;2.30;;
26612;SDS011;14248;57.652;11.908;2023-04-24T13:28:48;3.03;;;2.30;;
26612;SDS011;14248;57.652;11.908;2023-04-24T13:31:14;2.80;;;2.60;;
26612;SDS011;14248;57.652;11.908;2023-04-24T13:33:40;2.50;;;2.22;;
26612;SDS011;14248;57.652;11.908;2023-04-24T13:36:06;2.70;;;2.50;;
26612;SDS011;14248;57.652;11.908;2023-04-24T13:38:33;3.38;;;2.88;;
26612;SDS011;14248;57.652;11.908;2023-04-24T13:40:59;4.38;;;3.17;;
26612;SDS011;14248;57.652;11.908;2023-04-24T13:43:26;2.88;;;2.67;;
26612;SDS011;14248;57.652;11.908;2023-04-24T13:45:52;3.50;;;3.20;;
26612;SDS011;14248;57.652;11.908;2023-04-24T13:48:18;3.95;;;3.45;;
26612;SDS011;14248;57.652;11.908;2023-04-24T13:50:44;4.25;;;3.67;;
26612;SDS011;14248;57.652;11.908;2023-04-24T13:53:13;5.18;;;3.85;;
26612;SDS011;14248;57.652;11.908;2023-04-24T13:55:39;4.53;;;3.70;;
26612;SDS011;14248;57.652;11.908;2023-04-24T13:58:05;6.55;;;4.32;;
26612;SDS011;14248;57.652;11.908;2023-04-24T14:00:31;5.95;;;4.20;;
26612;SDS011;14248;57.652;11.908;2023-04-24T14:02:57;5.43;;;4.75;;
26612;SDS011;14248;57.652;11.908;2023-04-24T14:05:23;5.78;;;4.80;;
26612;SDS011;14248;57.652;11.908;2023-04-24T14:07:50;5.72;;;5.13;;
26612;SDS011;14248;57.652;11.908;2023-04-24T14:10:16;6.90;;;5.03;;
26612;SDS011;14248;57.652;11.908;2023-04-24T14:12:42;4.68;;;4.07;;
26612;SDS011;14248;57.652;11.908;2023-04-24T14:15:08;5.43;;;3.90;;
26612;SDS011;14248;57.652;11.908;2023-04-24T14:17:35;5.25;;;4.70;;
26612;SDS011;14248;57.652;11.908;2023-04-24T14:20:01;5.00;;;4.20;;
26612;SDS011;14248;57.652;11.908;2023-04-24T14:22:28;5.18;;;4.68;;
26612;SDS011;14248;57.652;11.908;2023-04-24T14:24:55;7.20;;;4.70;;
26612;SDS011;14248;57.652;11.908;2023-04-24T14:27:21;4.88;;;4.38;;
26612;SDS011;14248;57.652;11.908;2023-04-24T14:29:47;5.03;;;3.90;;
26612;SDS011;14248;57.652;11.908;2023-04-24T14:32:13;5.30;;;4.28;;
26612;SDS011;14248;57.652;11.908;2023-04-24T14:34:40;4.28;;;3.53;;
26612;SDS011;14248;57.652;11.908;2023-04-24T14:37:06;4.25;;;3.85;;
26612;SDS011;14248;57.652;11.908;2023-04-24T14:39:32;5.03;;;4.43;;
26612;SDS011;14248;57.652;11.908;2023-04-24T14:41:59;5.10;;;4.50;;
26612;SDS011;14248;57.652;11.908;2023-04-24T14:44:26;6.25;;;4.32;;
26612;SDS011;14248;57.652;11.908;2023-04-24T14:46:52;4.57;;;4.07;;
26612;SDS011;14248;57.652;11.908;2023-04-24T14:49:18;5.53;;;4.38;;
26612;SDS011;14248;57.652;11.908;2023-04-24T14:51:44;4.13;;;3.75;;
26612;SDS011;14248;57.652;11.908;2023-04-24T14:54:10;5.22;;;4.07;;
26612;SDS011;14248;57.652;11.908;2023-04-24T14:56:37;5.82;;;4.50;;
26612;SDS011;14248;57.652;11.908;2023-04-24T14:59:05;4.32;;;3.92;;
26612;SDS011;14248;57.652;11.908;2023-04-24T15:01:32;5.57;;;4.60;;
26612;SDS011;14248;57.652;11.908;2023-04-24T15:04:00;4.82;;;3.92;;
26612;SDS011;14248;57.652;11.908;2023-04-24T15:06:26;5.75;;;4.40;;
26612;SDS011;14248;57.652;11.908;2023-04-24T15:08:53;4.28;;;3.50;;
26612;SDS011;14248;57.652;11.908;2023-04-24T15:11:19;3.83;;;3.30;;
26612;SDS011;14248;57.652;11.908;2023-04-24T15:13:46;5.93;;;3.95;;